Time;durP1;ratioP1;P1;durP2;ratioP2;P2;SDS_P1;SDS_P2;PMS_P1;PMS_P2;Temp;Humidity;BMP_temperature;BMP_pressure;BME280_temperature;BME280_humidity;BME280_pressure;Samples;Min_cycle;Max_cycle;Signal;HPM_P1;HPM_P2
2022/12/17 13:06:06;;;;;;;10.93;6.15;;;;;;;12.98;95.27;94855.34;4983306;28;20403;-78
2022/12/17 13:08:32;;;;;;;7.87;4.60;;;;;;;12.85;95.13;94836.00;4988542;28;20170;-76
2022/12/17 13:11:10;;;;;;;8.90;5.20;;;;;;;12.96;94.89;94844.19;4965539;28;20427;-77
2022/12/17 13:13:54;;;;;;;7.93;5.37;;;;;;;12.96;93.38;94849.50;4973577;28;20653;-77
2022/12/17 13:16:48;;;;;;;9.60;4.83;;;;;;;12.81;93.63;94824.28;4971138;28;20193;-77
2022/12/17 13:19:31;;;;;;;6.57;3.83;;;;;;;12.93;92.40;94820.88;4969515;28;20187;-77
2022/12/17 13:22:11;;;;;;;7.40;3.30;;;;;;;12.87;92.30;94833.16;4970505;28;20217;-77
2022/12/17 13:24:37;;;;;;;6.23;3.40;;;;;;;12.80;92.80;94829.78;4964801;28;20193;-76
2022/12/17 13:27:03;;;;;;;6.50;3.27;;;;;;;12.72;93.03;94845.94;4982282;28;20181;-76
2022/12/17 13:29:33;;;;;;;5.87;3.67;;;;;;;12.41;93.30;94797.59;4982314;28;20182;-77
2022/12/17 13:32:21;;;;;;;8.17;4.13;;;;;;;12.70;93.59;94843.53;4968635;28;20181;-77
2022/12/17 13:34:55;;;;;;;5.70;3.60;;;;;;;12.67;93.96;94857.19;4969354;28;20189;-77
2022/12/17 13:37:27;;;;;;;10.53;6.10;;;;;;;12.64;94.34;94864.75;4966709;28;20760;-76
2022/12/17 13:39:55;;;;;;;10.33;4.77;;;;;;;12.58;94.16;94863.81;4968272;28;20189;-77
2022/12/17 13:42:28;;;;;;;8.63;4.40;;;;;;;12.59;94.30;94867.25;4961499;28;20731;-77
2022/12/17 13:44:54;;;;;;;7.83;4.30;;;;;;;12.51;94.62;94857.00;4954549;28;20733;-76
2022/12/17 13:47:26;;;;;;;7.50;4.57;;;;;;;12.50;94.90;94879.97;4954613;28;20580;-76
2022/12/17 13:49:56;;;;;;;6.50;4.10;;;;;;;12.54;94.52;94867.91;4962708;28;20189;-77
2022/12/17 13:52:26;;;;;;;8.63;4.40;;;;;;;12.54;94.66;94880.34;4959521;28;20194;-77
2022/12/17 13:54:52;;;;;;;7.43;4.80;;;;;;;12.52;95.06;94856.78;4963030;28;20281;-78
2022/12/17 13:57:22;;;;;;;8.67;4.10;;;;;;;12.57;94.87;94858.75;4966437;28;20185;-78
2022/12/17 13:59:52;;;;;;;8.67;4.37;;;;;;;12.34;95.00;94835.69;4969827;28;20174;-77
2022/12/17 14:02:26;;;;;;;9.43;4.20;;;;;;;12.51;95.47;94867.56;4979035;28;20181;-79
2022/12/17 14:04:54;;;;;;;6.57;3.93;;;;;;;12.54;95.60;94854.69;4972389;28;20599;-76
2022/12/17 14:07:20;;;;;;;13.60;4.40;;;;;;;12.54;95.23;94865.25;4972224;28;20177;-78
2022/12/17 14:09:47;;;;;;;7.80;4.30;;;;;;;12.59;94.96;94873.34;4973068;28;20221;-79
2022/12/17 14:12:24;;;;;;;7.27;4.67;;;;;;;12.59;94.92;94883.09;4972862;28;20255;-77
2022/12/17 14:15:07;;;;;;;6.20;4.10;;;;;;;12.48;95.44;94882.00;4972854;28;20201;-79
2022/12/17 14:17:45;;;;;;;7.63;4.53;;;;;;;12.47;95.68;94889.13;4969977;28;20289;-77
2022/12/17 14:20:14;;;;;;;9.73;5.87;;;;;;;12.53;97.52;94884.00;4970774;28;20806;-77
2022/12/17 14:22:43;;;;;;;9.37;6.07;;;;;;;12.37;96.78;94896.75;4988297;28;20715;-77
2022/12/17 14:25:17;;;;;;;10.23;6.28;;;;;;;12.20;97.49;94887.00;4975585;28;20433;-78
2022/12/17 14:28:01;;;;;;;10.73;5.40;;;;;;;12.27;97.25;94909.66;4979963;28;20264;-77
2022/12/17 14:30:39;;;;;;;12.52;8.13;;;;;;;12.12;98.48;94882.00;4961560;28;20445;-77
2022/12/17 14:33:29;;;;;;;8.77;5.30;;;;;;;12.23;98.83;94892.66;4976062;28;20185;-77
2022/12/17 14:35:58;;;;;;;10.43;6.43;;;;;;;12.19;97.63;94894.13;4964739;28;20437;-77
2022/12/17 14:38:24;;;;;;;37.27;18.30;;;;;;;12.14;98.32;94901.88;4974127;28;20181;-78
2022/12/17 14:40:50;;;;;;;16.60;9.13;;;;;;;11.98;98.46;94902.47;4973496;28;20306;-77
2022/12/17 14:43:22;;;;;;;13.10;7.87;;;;;;;11.81;98.47;94885.56;4971696;28;20283;-77
2022/12/17 14:49:02;;;;;;;32.03;16.97;;;;;;;11.93;98.08;94897.03;4976451;28;20683;-78
2022/12/17 14:51:32;;;;;;;31.33;14.87;;;;;;;12.04;98.44;94912.13;4977308;28;20796;-77
2022/12/17 14:54:24;;;;;;;30.07;15.97;;;;;;;11.91;97.78;94909.63;4972220;28;20229;-77
2022/12/17 14:56:53;;;;;;;25.63;14.50;;;;;;;11.71;97.32;94878.94;4973982;28;20185;-77
2022/12/17 14:59:32;;;;;;;32.67;18.07;;;;;;;11.91;97.53;94928.91;4973655;28;20205;-77
2022/12/17 15:02:22;;;;;;;37.73;20.57;;;;;;;11.72;97.79;94903.47;4973496;28;20177;-77
2022/12/17 15:04:50;;;;;;;43.07;24.10;;;;;;;11.79;97.66;94930.63;4978333;28;20535;-78
2022/12/17 15:07:22;;;;;;;45.83;26.90;;;;;;;11.69;97.67;94919.72;4973747;28;20263;-77
2022/12/17 15:09:47;;;;;;;78.40;38.50;;;;;;;11.69;97.31;94930.25;4964825;28;20198;-78
2022/12/17 15:12:12;;;;;;;75.23;37.30;;;;;;;11.64;97.64;94930.13;4969052;28;20174;-78
2022/12/17 15:14:38;;;;;;;100.27;53.97;;;;;;;11.43;98.72;94935.75;4970254;28;20440;-80
2022/12/17 15:17:04;;;;;;;103.97;54.67;;;;;;;11.20;98.83;94918.69;4975997;28;20472;-78
2022/12/17 15:19:30;;;;;;;61.90;36.90;;;;;;;11.30;98.71;94948.00;4974802;28;20177;-78
2022/12/17 15:21:55;;;;;;;45.07;26.77;;;;;;;11.18;99.12;94951.53;4981718;28;20244;-79
2022/12/17 15:24:21;;;;;;;32.07;18.57;;;;;;;11.18;99.68;94962.06;4972332;28;20176;-79
2022/12/17 15:26:47;;;;;;;26.73;13.03;;;;;;;11.17;99.98;94958.63;4983546;28;20184;-79
2022/12/17 15:29:13;;;;;;;25.67;14.20;;;;;;;11.14;100.00;94952.97;4980653;28;20256;-78
2022/12/17 15:31:38;;;;;;;25.03;13.53;;;;;;;10.88;100.00;94917.88;4971000;28;20592;-79
2022/12/17 15:34:04;;;;;;;57.83;30.97;;;;;;;11.14;99.96;94953.78;4977420;28;20661;-80
2022/12/17 15:36:31;;;;;;;61.67;35.87;;;;;;;11.10;99.33;94957.84;4974173;28;20563;-79
2022/12/17 15:38:57;;;;;;;55.43;31.23;;;;;;;11.05;99.50;94960.31;4979408;28;20252;-79
2022/12/17 15:44:07;;;;;;;96.33;48.50;;;;;;;10.99;99.67;94969.03;4975694;28;20205;-79
2022/12/17 15:46:33;;;;;;;85.03;43.70;;;;;;;10.91;99.43;94967.47;4983621;28;20162;-79
2022/12/17 15:48:58;;;;;;;76.70;43.20;;;;;;;10.84;99.66;94973.78;4976925;28;20213;-80
2022/12/17 15:51:24;;;;;;;200.40;106.27;;;;;;;10.79;99.73;94971.78;4978123;28;20174;-80
2022/12/17 15:53:50;;;;;;;249.93;126.80;;;;;;;10.77;100.00;94962.47;4979888;28;20205;-78
2022/12/17 15:56:22;;;;;;;199.83;106.43;;;;;;;10.68;100.00;94964.53;4979205;28;20264;-78
2022/12/17 15:58:48;;;;;;;129.23;73.77;;;;;;;10.61;100.00;94969.03;4976294;28;20197;-79
2022/12/17 16:01:14;;;;;;;115.53;66.17;;;;;;;10.49;99.99;94973.28;4971728;28;20183;-79
2022/12/17 16:03:39;;;;;;;86.37;52.67;;;;;;;10.03;100.00;94937.34;4968602;28;20922;-79
2022/12/17 16:06:05;;;;;;;87.87;53.77;;;;;;;10.24;100.00;94978.41;4981508;28;20213;-80
2022/12/17 16:08:32;;;;;;;89.50;53.47;;;;;;;10.22;100.00;94988.34;4982897;28;20171;-80
2022/12/17 16:10:57;;;;;;;76.53;47.73;;;;;;;10.20;100.00;94998.28;4983071;28;20184;-79
2022/12/17 16:13:22;;;;;;;74.43;46.30;;;;;;;10.25;100.00;94989.75;4978302;28;20177;-79
2022/12/17 16:15:56;;;;;;;81.93;50.43;;;;;;;10.21;100.00;94987.53;4980913;28;20607;-80
2022/12/17 16:18:22;;;;;;;78.43;45.83;;;;;;;10.15;100.00;94988.31;4973679;28;20433;-79
2022/12/17 16:20:48;;;;;;;85.53;55.90;;;;;;;10.11;100.00;94992.38;4977921;28;20429;-80
2022/12/17 16:23:13;;;;;;;86.50;52.63;;;;;;;10.06;100.00;94986.91;4982604;28;20256;-80
2022/12/17 16:25:39;;;;;;;97.10;55.43;;;;;;;9.92;100.00;94976.63;4972095;28;20661;-80
2022/12/17 16:28:04;;;;;;;94.77;60.90;;;;;;;10.06;100.00;95007.94;4974441;28;20445;-80
2022/12/17 16:30:30;;;;;;;72.43;40.40;;;;;;;10.10;100.00;95011.81;4978730;28;20178;-80
2022/12/17 16:32:58;;;;;;;70.87;40.87;;;;;;;10.09;100.00;95018.06;4982657;28;20189;-80
2022/12/17 16:35:23;;;;;;;71.40;40.60;;;;;;;10.07;100.00;95014.84;4982146;28;20199;-80
2022/12/17 16:37:49;;;;;;;75.67;42.97;;;;;;;10.12;100.00;95027.34;4983830;28;20260;-80
2022/12/17 16:40:14;;;;;;;77.23;45.67;;;;;;;10.17;100.00;95025.78;4983444;28;20192;-80
2022/12/17 16:42:40;;;;;;;75.53;45.93;;;;;;;10.19;100.00;95030.84;4981026;28;20221;-81
2022/12/17 16:45:06;;;;;;;96.40;50.23;;;;;;;10.15;100.00;95038.31;4982892;28;20224;-80
2022/12/17 16:47:32;;;;;;;85.10;48.53;;;;;;;10.14;99.40;95031.41;4978503;28;20185;-80
2022/12/17 16:49:57;;;;;;;92.57;49.17;;;;;;;10.05;99.08;95031.81;4985003;28;20691;-80
2022/12/17 16:52:22;;;;;;;112.63;57.27;;;;;;;10.00;99.14;95034.25;4986569;28;20220;-80
2022/12/17 16:54:48;;;;;;;128.27;69.80;;;;;;;9.95;99.34;95036.66;4979867;28;20202;-78
2022/12/17 16:57:13;;;;;;;137.30;74.40;;;;;;;9.94;99.40;95041.16;4978507;28;20273;-78
2022/12/17 16:59:39;;;;;;;160.33;79.47;;;;;;;9.91;99.37;95041.53;4975499;28;20173;-77
2022/12/17 17:02:04;;;;;;;133.43;72.67;;;;;;;9.87;99.69;95039.50;4980865;28;20214;-78
2022/12/17 17:04:30;;;;;;;134.00;70.70;;;;;;;9.91;99.43;95051.25;4984528;28;20187;-78
2022/12/17 17:06:56;;;;;;;136.63;72.07;;;;;;;9.90;99.17;95049.63;4982927;28;20232;-79
2022/12/17 17:09:23;;;;;;;177.80;104.80;;;;;;;9.54;99.90;95040.28;4972154;28;20440;-79
2022/12/17 17:11:50;;;;;;;150.33;86.83;;;;;;;9.56;100.00;95042.72;4976383;28;20432;-79
2022/12/17 17:14:16;;;;;;;156.83;88.37;;;;;;;9.68;100.00;95059.53;4977023;28;20888;-78
2022/12/17 17:16:41;;;;;;;184.98;103.80;;;;;;;9.33;100.00;95036.00;4971885;28;20472;-77
2022/12/17 17:19:06;;;;;;;117.50;64.93;;;;;;;9.29;100.00;95062.84;4971520;28;20448;-76
2022/12/17 17:21:52;;;;;;;118.03;57.37;;;;;;;9.38;100.00;95066.94;4973990;28;20182;-76
2022/12/17 17:24:20;;;;;;;79.00;43.80;;;;;;;9.40;100.00;95068.34;4973250;28;20662;-77
2022/12/17 17:26:47;;;;;;;94.87;50.27;;;;;;;9.48;100.00;95080.50;4973499;28;20574;-77
2022/12/17 17:29:12;;;;;;;109.30;56.03;;;;;;;9.52;100.00;95083.53;4972093;28;20201;-76
2022/12/17 17:31:38;;;;;;;91.67;48.60;;;;;;;9.56;100.00;95079.50;4972409;28;20704;-76
2022/12/17 17:34:12;;;;;;;87.27;45.40;;;;;;;9.51;99.98;95092.44;4971360;28;20212;-76
2022/12/17 17:36:39;;;;;;;86.37;46.70;;;;;;;9.52;100.00;95096.66;4965151;28;20237;-77
2022/12/17 17:39:05;;;;;;;92.60;46.70;;;;;;;9.34;100.00;95074.38;4969968;28;20177;-76
2022/12/17 17:41:34;;;;;;;91.47;50.20;;;;;;;9.35;100.00;95078.63;4973068;28;20225;-77
2022/12/17 17:44:11;;;;;;;91.00;47.90;;;;;;;9.35;99.98;95088.31;4972223;28;20197;-78
2022/12/17 17:46:36;;;;;;;93.77;51.90;;;;;;;9.21;99.87;95076.97;4972886;28;20185;-78
2022/12/17 17:49:03;;;;;;;98.80;53.60;;;;;;;9.32;99.98;95099.25;4967843;28;20288;-76
2022/12/17 17:51:35;;;;;;;185.03;87.97;;;;;;;9.22;100.00;95104.88;4964199;28;20320;-76
2022/12/17 17:54:02;;;;;;;132.63;63.50;;;;;;;9.19;100.00;95102.63;4970876;28;20649;-79
2022/12/17 17:56:30;;;;;;;111.97;60.40;;;;;;;9.24;100.00;95116.00;4973722;28;20201;-77
2022/12/17 17:59:07;;;;;;;125.23;64.13;;;;;;;9.24;100.00;95113.38;4969230;28;20248;-77
2022/12/17 18:04:57;;;;;;;308.13;166.40;;;;;;;9.22;100.00;95127.69;5386403;22;20247;-77
2022/12/17 18:07:22;;;;;;;300.90;162.60;;;;;;;9.12;100.00;95120.16;4983544;28;20189;-76
2022/12/17 18:09:48;;;;;;;330.30;177.10;;;;;;;9.17;100.00;95146.66;4988248;28;20220;-78
2022/12/17 18:14:57;;;;;;;366.27;198.03;;;;;;;9.00;100.00;95119.09;4990859;28;20195;-78
2022/12/17 18:17:22;;;;;;;281.87;149.87;;;;;;;9.04;100.00;95136.91;4988462;28;20189;-78
2022/12/17 18:19:49;;;;;;;224.47;114.47;;;;;;;9.06;100.00;95139.34;4986166;28;20252;-77
2022/12/17 18:22:14;;;;;;;178.63;100.18;;;;;;;9.17;100.00;95153.75;4996637;28;20442;-77
2022/12/17 18:24:39;;;;;;;180.40;94.93;;;;;;;9.17;100.00;95180.78;4988258;28;20177;-77
2022/12/17 18:27:05;;;;;;;111.30;60.70;;;;;;;9.12;100.00;95154.31;4984818;28;20501;-76
2022/12/17 18:29:31;;;;;;;79.63;43.47;;;;;;;9.27;100.00;95170.75;4983521;28;20695;-77
2022/12/17 18:31:56;;;;;;;55.90;31.27;;;;;;;9.25;100.00;95164.09;4983604;28;20176;-77
2022/12/17 18:34:26;;;;;;;40.10;22.75;;;;;;;9.32;100.00;95176.25;4988084;28;20930;-77
2022/12/17 18:36:52;;;;;;;34.70;19.13;;;;;;;9.38;100.00;95174.66;4986698;28;20081;-77
2022/12/17 18:39:22;;;;;;;36.47;19.27;;;;;;;9.42;100.00;95183.78;4988875;28;20707;-79
2022/12/17 18:44:36;;;;;;;34.53;20.30;;;;;;;9.41;100.00;95193.47;4984520;28;20957;-78
2022/12/17 18:47:01;;;;;;;36.35;21.95;;;;;;;9.26;100.00;95195.38;4994455;28;20445;-78
2022/12/17 18:49:27;;;;;;;39.33;22.85;;;;;;;9.25;100.00;95185.09;4993113;28;20427;-78
2022/12/17 18:51:53;;;;;;;43.38;22.35;;;;;;;9.42;100.00;95202.97;4984611;28;20469;-78
2022/12/17 18:54:23;;;;;;;40.17;19.87;;;;;;;9.49;100.00;95208.25;4992893;28;20182;-79
2022/12/17 18:56:50;;;;;;;34.25;19.05;;;;;;;9.44;100.00;95202.75;4989533;28;20526;-78
2022/12/17 18:59:18;;;;;;;38.10;22.50;;;;;;;9.31;100.00;95198.25;4988946;28;20439;-78
2022/12/17 19:01:45;;;;;;;41.53;27.80;;;;;;;9.31;100.00;95223.72;4989606;28;20506;-78
2022/12/17 19:04:13;;;;;;;44.43;27.80;;;;;;;9.07;100.00;95178.53;4993128;28;20189;-77
2022/12/17 19:06:40;;;;;;;51.22;31.23;;;;;;;9.36;100.00;95231.81;4970736;28;20475;-78
2022/12/17 19:09:07;;;;;;;57.90;34.00;;;;;;;9.28;100.00;95227.53;4989430;28;20174;-77
2022/12/17 19:11:34;;;;;;;52.23;27.43;;;;;;;9.26;100.00;95233.97;4986330;28;20188;-78
2022/12/17 19:13:59;;;;;;;34.35;20.35;;;;;;;9.23;100.00;95243.06;4993260;28;20443;-77
2022/12/17 19:16:27;;;;;;;41.47;23.93;;;;;;;9.12;100.00;95229.66;4991105;28;20859;-78
2022/12/17 19:18:54;;;;;;;33.40;17.73;;;;;;;9.33;100.00;95254.06;4993253;28;20177;-77
2022/12/17 19:21:20;;;;;;;33.87;18.23;;;;;;;9.25;100.00;95246.34;4999932;28;20195;-78
2022/12/17 19:23:46;;;;;;;29.13;15.83;;;;;;;9.29;100.00;95254.63;4997377;28;20723;-78
2022/12/17 19:26:18;;;;;;;39.23;17.67;;;;;;;9.30;100.00;95259.69;4987091;28;20227;-77
2022/12/17 19:28:47;;;;;;;38.67;21.37;;;;;;;9.13;100.00;95245.22;4982038;28;20431;-77
2022/12/17 19:31:13;;;;;;;37.63;17.50;;;;;;;9.23;100.00;95266.72;4986423;28;20178;-77
2022/12/17 19:33:39;;;;;;;34.20;18.03;;;;;;;9.30;100.00;95270.19;4983603;28;20199;-78
2022/12/17 19:36:17;;;;;;;37.27;22.93;;;;;;;9.24;100.00;95273.59;4988505;28;20926;-78
2022/12/17 19:38:43;;;;;;;39.80;24.80;;;;;;;8.94;100.00;95248.53;4999384;28;20433;-78
2022/12/17 19:41:13;;;;;;;64.07;34.53;;;;;;;9.11;100.00;95277.94;4999506;28;20427;-77
2022/12/17 19:43:39;;;;;;;34.38;20.38;;;;;;;8.98;100.00;95271.59;4985332;28;20821;-77
2022/12/17 19:46:07;;;;;;;32.03;18.90;;;;;;;9.08;100.00;95276.50;4986014;28;20177;-80
2022/12/17 19:48:35;;;;;;;34.97;20.15;;;;;;;8.97;100.00;95256.84;4984693;28;20456;-78
2022/12/17 19:51:01;;;;;;;33.20;21.20;;;;;;;8.99;100.00;95267.94;4987670;28;20464;-76
2022/12/17 19:53:29;;;;;;;34.03;18.70;;;;;;;9.09;100.00;95272.84;4988570;28;20248;-77
2022/12/17 19:55:56;;;;;;;33.23;16.40;;;;;;;9.13;100.00;95284.63;4986492;28;20255;-77
2022/12/17 19:58:23;;;;;;;24.40;14.47;;;;;;;9.22;100.00;95278.22;4989707;28;20174;-78
2022/12/17 20:00:50;;;;;;;23.67;12.80;;;;;;;9.21;100.00;95257.41;4994493;28;20522;-78
2022/12/17 20:06:37;;;;;;;25.33;14.03;;;;;;;8.73;100.00;95169.84;4982345;28;20255;-80
2022/12/17 20:09:05;;;;;;;32.03;19.87;;;;;;;9.53;100.00;95311.16;5009339;28;20434;-79
2022/12/17 20:11:33;;;;;;;37.57;19.93;;;;;;;9.31;100.00;95274.44;5010820;28;20180;-79
2022/12/17 20:14:07;;;;;;;25.77;15.75;;;;;;;9.43;100.00;95293.91;4998521;28;20502;-79
2022/12/17 20:16:35;;;;;;;27.60;15.03;;;;;;;9.64;100.00;95310.63;5003190;28;20271;-78
2022/12/17 20:19:03;;;;;;;32.57;18.13;;;;;;;9.47;100.00;95312.75;5004753;28;20419;-80
2022/12/17 20:21:28;;;;;;;28.07;15.90;;;;;;;9.41;100.00;95309.06;5001780;28;20915;-79
2022/12/17 20:23:54;;;;;;;32.87;18.63;;;;;;;9.51;100.00;95328.94;5002669;28;20434;-79
2022/12/17 20:26:20;;;;;;;23.27;15.07;;;;;;;9.55;100.00;95330.16;5003084;28;20282;-79
2022/12/17 20:28:45;;;;;;;26.47;17.03;;;;;;;9.44;100.00;95324.44;5002696;28;20434;-78
2022/12/17 20:31:11;;;;;;;25.67;14.70;;;;;;;9.58;100.00;95340.31;4993640;28;20181;-79
2022/12/17 20:33:37;;;;;;;25.53;14.53;;;;;;;9.61;100.00;95342.53;5005702;28;20180;-80
2022/12/17 20:36:09;;;;;;;29.17;14.63;;;;;;;9.65;100.00;95341.97;5000835;28;20698;-80
2022/12/17 20:38:34;;;;;;;27.87;14.13;;;;;;;9.60;100.00;95336.47;5003137;28;20177;-80
2022/12/17 20:41:00;;;;;;;30.75;15.90;;;;;;;9.73;100.00;95348.88;4997075;28;20434;-78
2022/12/17 20:43:26;;;;;;;26.38;14.52;;;;;;;9.66;100.00;95340.16;4996719;28;20519;-78
2022/12/17 20:45:55;;;;;;;26.33;16.53;;;;;;;9.58;100.00;95353.44;4991597;28;20934;-78
2022/12/17 20:48:21;;;;;;;22.55;13.65;;;;;;;9.49;100.00;95363.28;4988877;28;20436;-78
2022/12/17 20:50:47;;;;;;;18.43;11.23;;;;;;;9.30;100.00;95340.31;4990821;28;20220;-78
2022/12/17 20:53:13;;;;;;;19.77;11.60;;;;;;;9.46;100.00;95380.25;4995716;28;20603;-78
2022/12/17 20:55:38;;;;;;;25.07;12.97;;;;;;;9.36;100.00;95352.66;4997003;28;20208;-79
2022/12/17 20:58:04;;;;;;;28.43;14.03;;;;;;;9.52;100.00;95376.03;5000923;28;20176;-79
2022/12/17 21:00:29;;;;;;;27.83;14.97;;;;;;;9.46;100.00;95366.28;4994950;28;20181;-78
2022/12/17 21:02:55;;;;;;;25.43;14.43;;;;;;;9.39;100.00;95379.38;4994231;28;20442;-79
2022/12/17 21:05:21;;;;;;;19.17;12.93;;;;;;;9.45;100.00;95380.44;5003399;28;20448;-81
2022/12/17 21:07:48;;;;;;;18.43;11.00;;;;;;;9.55;100.00;95380.09;5000490;28;20724;-80
2022/12/17 21:10:14;;;;;;;18.13;10.30;;;;;;;9.58;100.00;95385.81;4991570;28;20182;-79
2022/12/17 21:15:27;;;;;;;17.67;9.37;;;;;;;9.40;100.00;95354.75;4994759;28;20215;-80
2022/12/17 21:17:52;;;;;;;19.08;11.35;;;;;;;9.56;100.00;95387.81;4983404;28;20478;-78
2022/12/17 21:20:18;;;;;;;14.52;9.88;;;;;;;9.59;100.00;95394.50;4995571;28;20866;-79
2022/12/17 21:22:43;;;;;;;18.30;11.77;;;;;;;9.60;99.93;95385.63;4990400;28;21025;-78
2022/12/17 21:25:09;;;;;;;20.47;11.23;;;;;;;9.59;99.64;95382.19;4991802;28;20525;-79
2022/12/17 21:27:34;;;;;;;20.60;12.37;;;;;;;9.52;98.83;95404.13;4994039;28;20891;-78
2022/12/17 21:30:00;;;;;;;20.33;12.32;;;;;;;9.38;98.83;95375.13;4995395;28;20859;-79
2022/12/17 21:32:26;;;;;;;20.47;13.00;;;;;;;9.53;99.19;95422.34;4999980;28;20429;-78
2022/12/17 21:34:51;;;;;;;21.52;12.80;;;;;;;9.33;98.83;95395.94;4998767;28;20502;-79
2022/12/17 21:37:17;;;;;;;26.77;14.48;;;;;;;9.29;99.09;95414.88;4997087;28;20430;-79
2022/12/17 21:39:43;;;;;;;26.17;14.57;;;;;;;9.27;99.00;95414.22;4992748;28;20799;-79
2022/12/17 21:44:52;;;;;;;17.43;10.63;;;;;;;9.23;99.46;95423.50;4995327;28;20411;-78
2022/12/17 21:47:17;;;;;;;17.60;10.03;;;;;;;9.18;98.57;95399.59;5005442;28;20418;-78
2022/12/17 21:49:43;;;;;;;16.90;9.00;;;;;;;9.19;98.31;95411.75;4995393;28;20357;-77
2022/12/17 21:52:08;;;;;;;16.83;7.67;;;;;;;9.26;97.95;95428.38;4989165;28;20185;-78
2022/12/17 21:54:33;;;;;;;13.77;7.67;;;;;;;9.09;97.53;95412.88;4995643;28;20423;-78
2022/12/17 21:56:59;;;;;;;11.67;7.20;;;;;;;9.13;97.63;95436.13;5005356;28;20650;-78
2022/12/17 21:59:24;;;;;;;12.77;7.90;;;;;;;9.04;98.13;95430.19;4990546;28;20887;-78
2022/12/17 22:01:51;;;;;;;12.33;7.07;;;;;;;8.77;98.48;95388.91;4995388;28;20792;-78
2022/12/17 22:04:16;;;;;;;10.68;7.10;;;;;;;9.04;98.30;95419.69;5001014;28;20451;-77
2022/12/17 22:06:42;;;;;;;11.70;7.67;;;;;;;9.12;97.63;95445.00;4993093;28;20492;-78
2022/12/17 22:09:09;;;;;;;10.23;7.00;;;;;;;8.98;97.92;95417.81;4990833;28;20432;-78
2022/12/17 22:11:34;;;;;;;10.95;7.30;;;;;;;9.06;97.66;95422.94;4987658;28;20456;-78
2022/12/17 22:14:09;;;;;;;11.13;6.23;;;;;;;9.00;97.04;95413.16;4987712;28;20571;-78
2022/12/17 22:16:41;;;;;;;8.15;5.88;;;;;;;9.20;97.01;95453.59;4984522;28;20457;-79
2022/12/17 22:19:09;;;;;;;8.05;5.45;;;;;;;9.27;96.43;95451.00;4990638;28;20443;-78
2022/12/17 22:21:37;;;;;;;7.40;4.87;;;;;;;9.12;95.62;95440.56;4992484;28;20433;-78
2022/12/17 22:24:03;;;;;;;7.60;4.43;;;;;;;9.28;94.50;95453.47;4990370;28;20435;-79
2022/12/17 22:26:29;;;;;;;7.15;4.70;;;;;;;9.03;94.27;95439.88;4991903;28;20440;-78
2022/12/17 22:28:54;;;;;;;8.40;4.68;;;;;;;9.19;94.09;95459.84;4997874;28;20815;-79
2022/12/17 22:34:07;;;;;;;7.05;4.47;;;;;;;9.17;94.23;95459.19;4986416;28;20433;-78
2022/12/17 22:36:33;;;;;;;5.97;4.28;;;;;;;9.08;94.68;95470.84;4984480;28;20809;-78
2022/12/17 22:38:59;;;;;;;7.43;3.90;;;;;;;9.03;94.27;95450.38;4985565;28;20323;-79
2022/12/17 22:44:09;;;;;;;6.65;3.78;;;;;;;9.12;93.31;95471.28;4998348;28;20803;-79
2022/12/17 22:46:34;;;;;;;5.73;3.73;;;;;;;9.05;93.29;95466.78;4990839;28;20956;-78
2022/12/17 22:49:00;;;;;;;6.60;3.77;;;;;;;9.16;92.11;95486.50;4985682;28;20184;-78
2022/12/17 22:51:25;;;;;;;7.63;4.00;;;;;;;9.02;92.16;95488.16;4990243;28;20247;-78
2022/12/17 22:53:52;;;;;;;4.30;3.38;;;;;;;8.72;92.55;95455.09;4983452;28;20439;-78
2022/12/17 22:56:18;;;;;;;5.67;3.63;;;;;;;8.87;93.64;95491.81;4987820;28;20429;-78
2022/12/17 22:58:44;;;;;;;4.05;3.08;;;;;;;8.91;93.07;95490.44;4982203;28;20798;-78
2022/12/17 23:01:11;;;;;;;4.88;3.78;;;;;;;8.91;92.51;95485.16;4988328;28;20512;-78
2022/12/17 23:03:36;;;;;;;4.50;3.33;;;;;;;8.70;93.09;95462.34;4989917;28;21059;-79
2022/12/17 23:06:10;;;;;;;5.47;3.63;;;;;;;8.89;92.91;95498.50;4987728;28;20530;-78
2022/12/17 23:08:36;;;;;;;6.10;3.67;;;;;;;8.87;92.20;95499.69;4984111;28;20428;-78
2022/12/17 23:11:10;;;;;;;5.30;3.23;;;;;;;8.88;92.13;95498.69;4993675;28;20206;-79
2022/12/17 23:13:36;;;;;;;8.73;4.97;;;;;;;8.83;91.25;95501.03;4979798;28;20428;-78
2022/12/17 23:16:02;;;;;;;8.77;4.60;;;;;;;8.66;91.85;95490.75;4986353;28;20204;-78
2022/12/17 23:18:27;;;;;;;7.18;4.72;;;;;;;8.64;92.05;95502.44;4985567;28;20443;-78
2022/12/17 23:20:53;;;;;;;5.47;3.73;;;;;;;8.70;92.63;95520.06;4989545;28;20435;-78
2022/12/17 23:23:18;;;;;;;6.10;3.50;;;;;;;8.46;92.28;95499.38;4989725;28;20268;-78
2022/12/17 23:25:44;;;;;;;6.27;3.40;;;;;;;8.70;91.93;95536.63;4989115;28;20193;-79
2022/12/17 23:28:09;;;;;;;4.77;3.43;;;;;;;8.72;90.99;95543.53;4988289;28;20173;-78
2022/12/17 23:30:36;;;;;;;5.72;3.53;;;;;;;8.67;91.25;95539.63;4992129;28;20445;-78
2022/12/17 23:33:02;;;;;;;5.53;3.83;;;;;;;8.65;91.41;95538.97;4987364;28;20440;-78
2022/12/17 23:35:27;;;;;;;5.17;3.90;;;;;;;8.50;91.34;95542.59;4999098;28;20443;-78
2022/12/17 23:37:53;;;;;;;6.07;3.83;;;;;;;8.26;91.65;95538.41;4985110;28;20430;-78
2022/12/17 23:40:20;;;;;;;5.10;4.10;;;;;;;8.27;91.21;95558.41;4988776;28;20911;-78
2022/12/17 23:42:45;;;;;;;4.50;3.50;;;;;;;8.21;91.25;95559.13;4991337;28;20196;-79
2022/12/17 23:45:11;;;;;;;6.27;4.03;;;;;;;8.14;91.80;95558.19;4998063;28;20169;-78
2022/12/17 23:47:38;;;;;;;7.23;4.33;;;;;;;8.09;91.92;95555.28;4985525;28;20660;-79
2022/12/17 23:50:04;;;;;;;6.40;4.03;;;;;;;8.19;91.81;95567.16;4987350;28;20239;-78
2022/12/17 23:52:30;;;;;;;5.60;4.40;;;;;;;8.09;91.75;95557.91;4987468;28;20180;-78
2022/12/17 23:54:55;;;;;;;7.27;4.60;;;;;;;8.18;91.94;95562.09;4983141;28;20443;-78
2022/12/17 23:57:21;;;;;;;5.70;3.90;;;;;;;8.19;90.70;95584.69;4981266;28;20510;-78
2022/12/17 23:59:46;;;;;;;6.87;4.03;;;;;;;7.97;91.16;95563.56;4990089;28;20181;-78
